sensor_id;sensor_type;location;lat;lon;timestamp;pressure;altitude;pressure_sealevel;temperature;humidity
61786;BME280;47692;53.714;11.372;2023-09-19T00:00:26;99809.03;;;17.66;85.55
61786;BME280;47692;53.714;11.372;2023-09-19T00:02:56;99803.56;;;17.69;86.22
61786;BME280;47692;53.714;11.372;2023-09-19T00:05:22;99803.13;;;17.63;85.90
61786;BME280;47692;53.714;11.372;2023-09-19T00:07:50;99805.44;;;17.54;86.34
61786;BME280;47692;53.714;11.372;2023-09-19T00:10:16;99803.94;;;17.50;86.86
61786;BME280;47692;53.714;11.372;2023-09-19T00:12:44;99803.28;;;17.47;87.67
61786;BME280;47692;53.714;11.372;2023-09-19T00:15:10;99810.25;;;17.48;88.32
61786;BME280;47692;53.714;11.372;2023-09-19T00:17:36;99800.34;;;17.38;89.05
61786;BME280;47692;53.714;11.372;2023-09-19T00:20:03;99805.38;;;17.28;90.78
61786;BME280;47692;53.714;11.372;2023-09-19T00:22:32;99803.22;;;17.21;92.79
61786;BME280;47692;53.714;11.372;2023-09-19T00:24:57;99795.34;;;17.06;94.62
61786;BME280;47692;53.714;11.372;2023-09-19T00:27:22;99793.88;;;17.02;95.79
61786;BME280;47692;53.714;11.372;2023-09-19T00:29:48;99798.94;;;17.05;96.02
61786;BME280;47692;53.714;11.372;2023-09-19T00:32:13;99799.53;;;16.96;96.28
61786;BME280;47692;53.714;11.372;2023-09-19T00:34:38;99795.38;;;16.92;97.05
61786;BME280;47692;53.714;11.372;2023-09-19T00:37:03;99796.50;;;16.88;98.03
61786;BME280;47692;53.714;11.372;2023-09-19T00:39:29;99788.88;;;16.83;98.64
61786;BME280;47692;53.714;11.372;2023-09-19T00:41:56;99796.44;;;16.75;99.72
61786;BME280;47692;53.714;11.372;2023-09-19T00:44:21;99796.53;;;16.73;99.87
61786;BME280;47692;53.714;11.372;2023-09-19T00:46:48;99799.75;;;16.78;100.00
61786;BME280;47692;53.714;11.372;2023-09-19T00:49:15;99800.19;;;16.71;100.00
61786;BME280;47692;53.714;11.372;2023-09-19T00:51:40;99796.91;;;16.67;100.00
61786;BME280;47692;53.714;11.372;2023-09-19T00:54:11;99797.22;;;16.62;100.00
61786;BME280;47692;53.714;11.372;2023-09-19T00:56:38;99810.50;;;16.61;100.00
61786;BME280;47692;53.714;11.372;2023-09-19T00:59:05;99803.53;;;16.60;100.00
61786;BME280;47692;53.714;11.372;2023-09-19T01:01:31;99805.41;;;16.58;100.00
61786;BME280;47692;53.714;11.372;2023-09-19T01:03:57;99802.22;;;16.53;100.00
61786;BME280;47692;53.714;11.372;2023-09-19T01:06:23;99800.34;;;16.55;100.00
61786;BME280;47692;53.714;11.372;2023-09-19T01:08:49;99801.28;;;16.39;100.00
61786;BME280;47692;53.714;11.372;2023-09-19T01:11:24;99796.94;;;16.38;100.00
61786;BME280;47692;53.714;11.372;2023-09-19T01:16:37;99798.72;;;16.23;100.00
61786;BME280;47692;53.714;11.372;2023-09-19T01:24:22;99805.03;;;16.21;100.00
61786;BME280;47692;53.714;11.372;2023-09-19T01:29:42;99803.06;;;16.24;100.00
61786;BME280;47692;53.714;11.372;2023-09-19T01:32:10;99816.34;;;16.23;100.00
61786;BME280;47692;53.714;11.372;2023-09-19T01:34:45;99811.06;;;16.23;100.00
61786;BME280;47692;53.714;11.372;2023-09-19T01:37:15;99805.25;;;16.18;100.00
61786;BME280;47692;53.714;11.372;2023-09-19T01:39:46;99804.66;;;16.12;100.00
61786;BME280;47692;53.714;11.372;2023-09-19T01:42:43;99801.19;;;16.12;100.00
61786;BME280;47692;53.714;11.372;2023-09-19T01:45:19;99805.41;;;16.14;100.00
61786;BME280;47692;53.714;11.372;2023-09-19T01:47:51;99799.31;;;16.14;100.00
61786;BME280;47692;53.714;11.372;2023-09-19T01:53:05;99806.53;;;16.10;100.00
61786;BME280;47692;53.714;11.372;2023-09-19T01:55:37;99818.78;;;16.11;100.00
61786;BME280;47692;53.714;11.372;2023-09-19T01:58:17;99820.44;;;16.12;100.00
61786;BME280;47692;53.714;11.372;2023-09-19T02:00:47;99813.31;;;16.14;100.00
61786;BME280;47692;53.714;11.372;2023-09-19T02:03:13;99801.84;;;16.15;100.00
61786;BME280;47692;53.714;11.372;2023-09-19T02:05:39;99818.41;;;16.18;100.00
61786;BME280;47692;53.714;11.372;2023-09-19T02:08:05;99815.00;;;16.15;100.00
61786;BME280;47692;53.714;11.372;2023-09-19T02:10:30;99817.63;;;16.15;100.00
61786;BME280;47692;53.714;11.372;2023-09-19T02:12:55;99828.94;;;16.18;100.00
61786;BME280;47692;53.714;11.372;2023-09-19T02:15:21;99828.94;;;16.18;100.00
61786;BME280;47692;53.714;11.372;2023-09-19T02:17:47;99844.75;;;16.18;100.00
61786;BME280;47692;53.714;11.372;2023-09-19T02:20:13;99825.34;;;16.19;100.00
61786;BME280;47692;53.714;11.372;2023-09-19T02:22:41;99827.59;;;16.10;100.00
61786;BME280;47692;53.714;11.372;2023-09-19T02:25:07;99824.03;;;16.11;100.00
61786;BME280;47692;53.714;11.372;2023-09-19T02:27:33;99837.94;;;15.99;100.00
61786;BME280;47692;53.714;11.372;2023-09-19T02:29:58;99835.22;;;16.01;100.00
61786;BME280;47692;53.714;11.372;2023-09-19T02:32:24;99835.88;;;16.04;100.00
61786;BME280;47692;53.714;11.372;2023-09-19T02:34:49;99835.31;;;15.99;100.00
61786;BME280;47692;53.714;11.372;2023-09-19T02:37:17;99840.56;;;15.99;100.00
61786;BME280;47692;53.714;11.372;2023-09-19T02:39:44;99833.09;;;15.91;100.00
61786;BME280;47692;53.714;11.372;2023-09-19T02:42:10;99839.03;;;15.95;100.00
61786;BME280;47692;53.714;11.372;2023-09-19T02:44:35;99847.91;;;15.94;100.00
61786;BME280;47692;53.714;11.372;2023-09-19T02:47:00;99839.41;;;15.89;100.00
61786;BME280;47692;53.714;11.372;2023-09-19T02:49:26;99840.75;;;15.80;100.00
61786;BME280;47692;53.714;11.372;2023-09-19T02:51:51;99841.47;;;15.83;100.00
61786;BME280;47692;53.714;11.372;2023-09-19T02:54:17;99833.31;;;15.72;100.00
61786;BME280;47692;53.714;11.372;2023-09-19T02:56:43;99843.84;;;15.72;100.00
61786;BME280;47692;53.714;11.372;2023-09-19T02:59:08;99841.66;;;15.64;100.00
61786;BME280;47692;53.714;11.372;2023-09-19T03:01:36;99843.72;;;15.59;100.00
61786;BME280;47692;53.714;11.372;2023-09-19T03:04:02;99852.69;;;15.55;100.00
61786;BME280;47692;53.714;11.372;2023-09-19T03:06:28;99859.19;;;15.49;100.00
61786;BME280;47692;53.714;11.372;2023-09-19T03:08:56;99869.69;;;15.49;100.00
61786;BME280;47692;53.714;11.372;2023-09-19T03:11:22;99870.03;;;15.43;100.00
61786;BME280;47692;53.714;11.372;2023-09-19T03:13:52;99874.97;;;15.49;100.00
61786;BME280;47692;53.714;11.372;2023-09-19T03:16:18;99873.09;;;15.51;100.00
61786;BME280;47692;53.714;11.372;2023-09-19T03:18:47;99867.50;;;15.42;100.00
61786;BME280;47692;53.714;11.372;2023-09-19T03:21:14;99876.22;;;15.42;100.00
61786;BME280;47692;53.714;11.372;2023-09-19T03:23:39;99876.06;;;15.45;100.00
61786;BME280;47692;53.714;11.372;2023-09-19T03:26:06;99875.56;;;15.39;100.00
61786;BME280;47692;53.714;11.372;2023-09-19T03:28:33;99877.50;;;15.35;100.00
61786;BME280;47692;53.714;11.372;2023-09-19T03:31:02;99875.81;;;15.34;100.00
61786;BME280;47692;53.714;11.372;2023-09-19T03:33:28;99869.38;;;15.40;100.00
61786;BME280;47692;53.714;11.372;2023-09-19T03:35:56;99869.19;;;15.43;100.00
61786;BME280;47692;53.714;11.372;2023-09-19T03:38:23;99872.84;;;15.40;100.00
61786;BME280;47692;53.714;11.372;2023-09-19T03:40:48;99879.41;;;15.33;100.00
61786;BME280;47692;53.714;11.372;2023-09-19T03:43:14;99867.19;;;15.32;100.00
61786;BME280;47692;53.714;11.372;2023-09-19T03:45:39;99865.81;;;15.25;100.00
61786;BME280;47692;53.714;11.372;2023-09-19T03:48:11;99876.34;;;15.25;100.00
61786;BME280;47692;53.714;11.372;2023-09-19T03:50:36;99876.44;;;15.23;100.00
61786;BME280;47692;53.714;11.372;2023-09-19T03:53:02;99874.19;;;15.15;100.00
61786;BME280;47692;53.714;11.372;2023-09-19T03:55:28;99871.91;;;15.09;100.00
61786;BME280;47692;53.714;11.372;2023-09-19T03:57:54;99875.31;;;15.11;100.00
61786;BME280;47692;53.714;11.372;2023-09-19T04:00:20;99884.66;;;15.17;100.00
61786;BME280;47692;53.714;11.372;2023-09-19T04:02:47;99873.59;;;15.10;100.00
61786;BME280;47692;53.714;11.372;2023-09-19T04:05:13;99881.78;;;15.06;100.00
61786;BME280;47692;53.714;11.372;2023-09-19T04:07:38;99882.00;;;15.01;100.00
61786;BME280;47692;53.714;11.372;2023-09-19T04:10:04;99882.94;;;15.00;100.00
61786;BME280;47692;53.714;11.372;2023-09-19T04:12:30;99880.50;;;14.97;100.00
61786;BME280;47692;53.714;11.372;2023-09-19T04:14:55;99886.50;;;14.99;100.00
61786;BME280;47692;53.714;11.372;2023-09-19T04:17:20;99888.38;;;14.97;100.00
61786;BME280;47692;53.714;11.372;2023-09-19T04:19:46;99898.72;;;15.00;100.00
61786;BME280;47692;53.714;11.372;2023-09-19T04:22:11;99893.63;;;14.97;100.00
61786;BME280;47692;53.714;11.372;2023-09-19T04:24:38;99893.63;;;14.97;100.00
61786;BME280;47692;53.714;11.372;2023-09-19T04:27:04;99893.78;;;14.94;100.00
61786;BME280;47692;53.714;11.372;2023-09-19T04:29:29;99897.19;;;14.96;100.00
61786;BME280;47692;53.714;11.372;2023-09-19T04:31:55;99902.25;;;14.99;100.00
61786;BME280;47692;53.714;11.372;2023-09-19T04:34:22;99891.06;;;14.95;100.00
61786;BME280;47692;53.714;11.372;2023-09-19T04:36:49;99895.25;;;14.99;100.00
61786;BME280;47692;53.714;11.372;2023-09-19T04:39:14;99907.53;;;14.99;100.00
61786;BME280;47692;53.714;11.372;2023-09-19T04:41:40;99901.59;;;14.95;100.00
61786;BME280;47692;53.714;11.372;2023-09-19T04:44:06;99901.84;;;14.91;100.00
61786;BME280;47692;53.714;11.372;2023-09-19T04:46:32;99900.91;;;14.92;100.00
61786;BME280;47692;53.714;11.372;2023-09-19T04:48:57;99901.69;;;14.94;100.00
61786;BME280;47692;53.714;11.372;2023-09-19T04:51:23;99899.03;;;14.94;100.00
61786;BME280;47692;53.714;11.372;2023-09-19T04:53:48;99906.16;;;14.92;100.00
61786;BME280;47692;53.714;11.372;2023-09-19T04:56:14;99916.16;;;14.85;100.00
61786;BME280;47692;53.714;11.372;2023-09-19T04:58:40;99918.19;;;14.80;100.00
61786;BME280;47692;53.714;11.372;2023-09-19T05:01:05;99929.72;;;14.77;100.00
61786;BME280;47692;53.714;11.372;2023-09-19T05:03:30;99933.25;;;14.76;100.00
61786;BME280;47692;53.714;11.372;2023-09-19T05:05:56;99939.53;;;14.74;100.00
61786;BME280;47692;53.714;11.372;2023-09-19T05:08:22;99943.44;;;14.82;100.00
61786;BME280;47692;53.714;11.372;2023-09-19T05:10:47;99948.69;;;14.82;100.00
61786;BME280;47692;53.714;11.372;2023-09-19T05:13:14;99948.84;;;14.79;100.00
61786;BME280;47692;53.714;11.372;2023-09-19T05:15:39;99955.06;;;14.78;100.00
61786;BME280;47692;53.714;11.372;2023-09-19T05:18:05;99958.34;;;14.82;100.00
61786;BME280;47692;53.714;11.372;2023-09-19T05:20:31;99967.25;;;14.79;100.00
61786;BME280;47692;53.714;11.372;2023-09-19T05:23:05;99973.44;;;14.78;98.90
61786;BME280;47692;53.714;11.372;2023-09-19T05:25:35;99972.75;;;14.75;96.57
61786;BME280;47692;53.714;11.372;2023-09-19T05:28:08;99971.88;;;14.74;95.47
61786;BME280;47692;53.714;11.372;2023-09-19T05:30:34;99984.41;;;14.69;94.50
61786;BME280;47692;53.714;11.372;2023-09-19T05:33:01;99984.59;;;14.66;92.59
61786;BME280;47692;53.714;11.372;2023-09-19T05:35:27;99990.88;;;14.62;90.08
61786;BME280;47692;53.714;11.372;2023-09-19T05:37:53;99995.09;;;14.66;90.49
61786;BME280;47692;53.714;11.372;2023-09-19T05:40:20;100004.00;;;14.62;90.56
61786;BME280;47692;53.714;11.372;2023-09-19T05:42:46;100011.28;;;14.57;91.03
61786;BME280;47692;53.714;11.372;2023-09-19T05:45:13;100013.53;;;14.47;90.75
61786;BME280;47692;53.714;11.372;2023-09-19T05:47:40;100014.31;;;14.49;90.63
61786;BME280;47692;53.714;11.372;2023-09-19T05:50:11;100006.66;;;14.44;89.71
61786;BME280;47692;53.714;11.372;2023-09-19T05:52:37;100009.13;;;14.47;89.78
61786;BME280;47692;53.714;11.372;2023-09-19T05:55:06;100015.75;;;14.37;88.56
61786;BME280;47692;53.714;11.372;2023-09-19T05:57:33;100019.47;;;14.33;87.74
61786;BME280;47692;53.714;11.372;2023-09-19T05:59:59;100032.13;;;14.25;88.13
61786;BME280;47692;53.714;11.372;2023-09-19T06:02:24;100030.44;;;14.24;88.49
61786;BME280;47692;53.714;11.372;2023-09-19T06:04:54;100028.88;;;14.19;88.75
61786;BME280;47692;53.714;11.372;2023-09-19T06:07:20;100024.69;;;14.15;89.20
61786;BME280;47692;53.714;11.372;2023-09-19T06:09:47;100035.59;;;14.08;89.35
61786;BME280;47692;53.714;11.372;2023-09-19T06:12:12;100033.97;;;14.05;90.06
61786;BME280;47692;53.714;11.372;2023-09-19T06:14:42;100035.00;;;14.01;89.36
61786;BME280;47692;53.714;11.372;2023-09-19T06:17:08;100033.16;;;14.03;89.91
61786;BME280;47692;53.714;11.372;2023-09-19T06:19:33;100048.75;;;14.06;89.83
61786;BME280;47692;53.714;11.372;2023-09-19T06:21:59;100051.25;;;14.09;89.98
61786;BME280;47692;53.714;11.372;2023-09-19T06:24:24;100046.78;;;14.11;89.83
61786;BME280;47692;53.714;11.372;2023-09-19T06:26:50;100044.63;;;14.19;89.73
61786;BME280;47692;53.714;11.372;2023-09-19T06:29:17;100048.03;;;14.21;89.17
61786;BME280;47692;53.714;11.372;2023-09-19T06:31:43;100056.69;;;14.24;88.93
61786;BME280;47692;53.714;11.372;2023-09-19T06:34:12;100054.69;;;14.29;89.32
61786;BME280;47692;53.714;11.372;2023-09-19T06:36:40;100069.28;;;14.34;89.07
61786;BME280;47692;53.714;11.372;2023-09-19T06:39:06;100061.97;;;14.41;88.80
61786;BME280;47692;53.714;11.372;2023-09-19T06:41:31;100066.34;;;14.41;88.37
61786;BME280;47692;53.714;11.372;2023-09-19T06:43:57;100063.38;;;14.48;88.40
61786;BME280;47692;53.714;11.372;2023-09-19T06:46:23;100070.38;;;14.48;88.06
61786;BME280;47692;53.714;11.372;2023-09-19T06:48:48;100080.66;;;14.52;88.12
61786;BME280;47692;53.714;11.372;2023-09-19T06:51:14;100067.38;;;14.55;87.90
61786;BME280;47692;53.714;11.372;2023-09-19T06:53:41;100077.47;;;14.65;87.34
61786;BME280;47692;53.714;11.372;2023-09-19T06:56:06;100073.75;;;14.69;87.41
61786;BME280;47692;53.714;11.372;2023-09-19T06:58:32;100094.16;;;14.81;87.46
61786;BME280;47692;53.714;11.372;2023-09-19T07:00:57;100079.91;;;14.85;86.59
61786;BME280;47692;53.714;11.372;2023-09-19T07:03:22;100092.44;;;14.98;86.50
61786;BME280;47692;53.714;11.372;2023-09-19T07:05:51;100089.91;;;14.96;85.45
61786;BME280;47692;53.714;11.372;2023-09-19T07:08:18;100094.94;;;15.01;85.55
61786;BME280;47692;53.714;11.372;2023-09-19T07:10:44;100103.19;;;15.11;85.17
61786;BME280;47692;53.714;11.372;2023-09-19T07:13:17;100102.09;;;15.15;84.78
61786;BME280;47692;53.714;11.372;2023-09-19T07:15:44;100095.50;;;15.24;83.98
61786;BME280;47692;53.714;11.372;2023-09-19T07:18:13;100104.94;;;15.28;83.96
61786;BME280;47692;53.714;11.372;2023-09-19T07:20:40;100102.16;;;15.31;83.61
61786;BME280;47692;53.714;11.372;2023-09-19T07:23:11;100106.81;;;15.26;83.21
61786;BME280;47692;53.714;11.372;2023-09-19T07:25:39;100104.94;;;15.28;83.91
61786;BME280;47692;53.714;11.372;2023-09-19T07:28:04;100108.78;;;15.38;84.11
61786;BME280;47692;53.714;11.372;2023-09-19T07:30:29;100096.06;;;15.46;83.17
61786;BME280;47692;53.714;11.372;2023-09-19T07:32:55;100107.59;;;15.44;83.27
61786;BME280;47692;53.714;11.372;2023-09-19T07:35:20;100112.63;;;15.48;81.92
61786;BME280;47692;53.714;11.372;2023-09-19T07:37:46;100106.94;;;15.56;81.71
61786;BME280;47692;53.714;11.372;2023-09-19T07:40:15;100120.06;;;15.74;82.30
61786;BME280;47692;53.714;11.372;2023-09-19T07:42:41;100114.63;;;15.77;81.43
61786;BME280;47692;53.714;11.372;2023-09-19T07:45:07;100118.59;;;15.86;80.81
61786;BME280;47692;53.714;11.372;2023-09-19T07:47:33;100118.41;;;15.89;80.53
61786;BME280;47692;53.714;11.372;2023-09-19T07:49:59;100112.69;;;15.80;79.74
61786;BME280;47692;53.714;11.372;2023-09-19T07:52:27;100115.31;;;15.80;79.38
61786;BME280;47692;53.714;11.372;2023-09-19T07:54:53;100139.13;;;15.95;79.40
61786;BME280;47692;53.714;11.372;2023-09-19T07:57:18;100129.22;;;16.00;79.09
61786;BME280;47692;53.714;11.372;2023-09-19T07:59:45;100141.88;;;16.09;78.89
61786;BME280;47692;53.714;11.372;2023-09-19T08:02:11;100133.53;;;16.01;78.64
61786;BME280;47692;53.714;11.372;2023-09-19T08:04:42;100137.13;;;16.00;78.41
61786;BME280;47692;53.714;11.372;2023-09-19T08:07:07;100150.69;;;16.08;79.20
61786;BME280;47692;53.714;11.372;2023-09-19T08:09:34;100148.25;;;16.05;78.77
61786;BME280;47692;53.714;11.372;2023-09-19T08:11:59;100154.59;;;16.01;78.89
61786;BME280;47692;53.714;11.372;2023-09-19T08:14:27;100151.22;;;15.99;79.69
61786;BME280;47692;53.714;11.372;2023-09-19T08:16:57;100160.53;;;16.05;80.27
61786;BME280;47692;53.714;11.372;2023-09-19T08:19:23;100162.75;;;16.12;79.16
61786;BME280;47692;53.714;11.372;2023-09-19T08:21:48;100155.97;;;16.08;78.77
61786;BME280;47692;53.714;11.372;2023-09-19T08:24:15;100149.19;;;16.20;77.92
61786;BME280;47692;53.714;11.372;2023-09-19T08:26:40;100146.78;;;16.31;77.29
61786;BME280;47692;53.714;11.372;2023-09-19T08:29:05;100154.09;;;16.42;77.82
61786;BME280;47692;53.714;11.372;2023-09-19T08:31:32;100160.34;;;16.56;78.23
61786;BME280;47692;53.714;11.372;2023-09-19T08:33:58;100153.81;;;16.47;77.45
61786;BME280;47692;53.714;11.372;2023-09-19T08:36:24;100149.00;;;16.39;77.95
61786;BME280;47692;53.714;11.372;2023-09-19T08:38:50;100159.72;;;16.36;77.49
61786;BME280;47692;53.714;11.372;2023-09-19T08:41:17;100141.63;;;16.30;77.60
61786;BME280;47692;53.714;11.372;2023-09-19T08:43:42;100151.38;;;16.28;77.40
61786;BME280;47692;53.714;11.372;2023-09-19T08:46:16;100157.00;;;16.22;76.55
61786;BME280;47692;53.714;11.372;2023-09-19T08:48:58;100147.63;;;16.16;78.07
61786;BME280;47692;53.714;11.372;2023-09-19T08:51:45;100148.31;;;16.20;78.25
61786;BME280;47692;53.714;11.372;2023-09-19T08:54:25;100150.22;;;16.18;77.16
61786;BME280;47692;53.714;11.372;2023-09-19T08:56:54;100153.44;;;16.23;77.65
61786;BME280;47692;53.714;11.372;2023-09-19T08:59:22;100155.53;;;16.32;77.42
61786;BME280;47692;53.714;11.372;2023-09-19T09:01:53;100154.69;;;16.31;76.48
61786;BME280;47692;53.714;11.372;2023-09-19T09:04:20;100157.44;;;16.30;76.94
61786;BME280;47692;53.714;11.372;2023-09-19T09:06:48;100166.25;;;16.29;75.98
61786;BME280;47692;53.714;11.372;2023-09-19T09:09:18;100154.78;;;16.30;76.16
61786;BME280;47692;53.714;11.372;2023-09-19T09:11:43;100157.59;;;16.27;76.06
61786;BME280;47692;53.714;11.372;2023-09-19T09:14:08;100158.69;;;16.23;76.63
61786;BME280;47692;53.714;11.372;2023-09-19T09:16:34;100152.31;;;16.27;77.11
61786;BME280;47692;53.714;11.372;2023-09-19T09:19:00;100148.75;;;16.28;77.61
61786;BME280;47692;53.714;11.372;2023-09-19T09:21:26;100148.56;;;16.31;77.86
61786;BME280;47692;53.714;11.372;2023-09-19T09:23:52;100151.19;;;16.31;77.30
61786;BME280;47692;53.714;11.372;2023-09-19T09:26:41;100152.91;;;16.32;77.42
61786;BME280;47692;53.714;11.372;2023-09-19T09:29:08;100141.09;;;16.39;77.17
61786;BME280;47692;53.714;11.372;2023-09-19T09:31:33;100146.59;;;16.19;76.62
61786;BME280;47692;53.714;11.372;2023-09-19T09:33:58;100159.19;;;16.13;76.15
61786;BME280;47692;53.714;11.372;2023-09-19T09:36:35;100153.44;;;16.23;77.11
61786;BME280;47692;53.714;11.372;2023-09-19T09:39:01;100153.19;;;16.27;76.83
61786;BME280;47692;53.714;11.372;2023-09-19T09:49:27;100163.97;;;16.39;75.85
61786;BME280;47692;53.714;11.372;2023-09-19T09:52:06;100169.91;;;16.42;75.46
61786;BME280;47692;53.714;11.372;2023-09-19T09:54:34;100175.00;;;16.45;75.05
61786;BME280;47692;53.714;11.372;2023-09-19T09:57:08;100173.88;;;16.50;74.63
61786;BME280;47692;53.714;11.372;2023-09-19T09:59:49;100188.50;;;16.39;74.24
61786;BME280;47692;53.714;11.372;2023-09-19T10:02:28;100182.91;;;16.45;74.14
61786;BME280;47692;53.714;11.372;2023-09-19T10:04:55;100192.50;;;16.46;74.46
61786;BME280;47692;53.714;11.372;2023-09-19T10:07:40;100186.81;;;16.38;73.04
61786;BME280;47692;53.714;11.372;2023-09-19T10:10:08;100187.06;;;16.50;73.25
61786;BME280;47692;53.714;11.372;2023-09-19T10:12:47;100191.16;;;16.55;73.27
61786;BME280;47692;53.714;11.372;2023-09-19T10:15:15;100194.47;;;16.59;72.44
61786;BME280;47692;53.714;11.372;2023-09-19T10:17:44;100190.25;;;16.71;72.25
61786;BME280;47692;53.714;11.372;2023-09-19T10:20:17;100185.66;;;16.74;71.71
61786;BME280;47692;53.714;11.372;2023-09-19T10:22:49;100193.19;;;16.66;70.61
61786;BME280;47692;53.714;11.372;2023-09-19T10:25:25;100193.44;;;16.61;71.33
61786;BME280;47692;53.714;11.372;2023-09-19T10:27:52;100197.25;;;16.56;71.09
61786;BME280;47692;53.714;11.372;2023-09-19T10:30:22;100195.56;;;16.55;70.78
61786;BME280;47692;53.714;11.372;2023-09-19T10:32:58;100190.25;;;16.71;71.41
61786;BME280;47692;53.714;11.372;2023-09-19T10:35:25;100175.97;;;16.91;71.59
61786;BME280;47692;53.714;11.372;2023-09-19T10:37:51;100186.50;;;16.91;70.05
61786;BME280;47692;53.714;11.372;2023-09-19T10:40:20;100196.84;;;17.10;70.14
61786;BME280;47692;53.714;11.372;2023-09-19T10:42:48;100198.25;;;17.01;68.65
61786;BME280;47692;53.714;11.372;2023-09-19T10:45:15;100208.06;;;17.14;68.39
61786;BME280;47692;53.714;11.372;2023-09-19T10:47:42;100200.06;;;17.15;68.65
61786;BME280;47692;53.714;11.372;2023-09-19T10:50:08;100195.81;;;17.12;67.79
61786;BME280;47692;53.714;11.372;2023-09-19T10:52:39;100188.50;;;17.18;67.75
61786;BME280;47692;53.714;11.372;2023-09-19T10:55:07;100180.25;;;17.38;68.70
61786;BME280;47692;53.714;11.372;2023-09-19T10:57:33;100196.28;;;17.50;67.29
61786;BME280;47692;53.714;11.372;2023-09-19T11:00:03;100197.06;;;17.52;66.04
61786;BME280;47692;53.714;11.372;2023-09-19T11:03:24;100196.25;;;17.35;65.56
61786;BME280;47692;53.714;11.372;2023-09-19T11:06:02;100184.34;;;17.28;66.15
61786;BME280;47692;53.714;11.372;2023-09-19T11:09:07;100178.34;;;17.26;66.71
61786;BME280;47692;53.714;11.372;2023-09-19T11:14:29;100179.94;;;17.28;66.96
61786;BME280;47692;53.714;11.372;2023-09-19T11:30:47;100198.59;;;17.99;63.80
61786;BME280;47692;53.714;11.372;2023-09-19T11:36:00;100188.38;;;17.79;64.12
61786;BME280;47692;53.714;11.372;2023-09-19T11:46:27;100180.28;;;17.96;64.78
61786;BME280;47692;53.714;11.372;2023-09-19T11:48:53;100187.44;;;18.08;64.59
61786;BME280;47692;53.714;11.372;2023-09-19T11:51:20;100191.41;;;18.16;64.65
61786;BME280;47692;53.714;11.372;2023-09-19T11:53:56;100184.91;;;18.21;65.10
61786;BME280;47692;53.714;11.372;2023-09-19T11:56:23;100196.50;;;18.19;64.15
61786;BME280;47692;53.714;11.372;2023-09-19T11:58:53;100187.63;;;17.91;64.08
61786;BME280;47692;53.714;11.372;2023-09-19T12:01:30;100175.94;;;17.81;64.84
61786;BME280;47692;53.714;11.372;2023-09-19T12:03:58;100181.31;;;17.93;65.29
61786;BME280;47692;53.714;11.372;2023-09-19T12:06:25;100187.28;;;18.12;63.99
61786;BME280;47692;53.714;11.372;2023-09-19T12:08:51;100187.50;;;18.36;64.29
61786;BME280;47692;53.714;11.372;2023-09-19T12:11:19;100186.28;;;18.41;63.99
61786;BME280;47692;53.714;11.372;2023-09-19T12:13:47;100183.66;;;18.27;64.12
61786;BME280;47692;53.714;11.372;2023-09-19T12:16:14;100192.25;;;18.16;64.16
61786;BME280;47692;53.714;11.372;2023-09-19T12:18:43;100185.38;;;18.14;64.36
61786;BME280;47692;53.714;11.372;2023-09-19T12:21:22;100183.88;;;17.95;64.84
61786;BME280;47692;53.714;11.372;2023-09-19T12:24:12;100181.81;;;18.00;65.00
61786;BME280;47692;53.714;11.372;2023-09-19T12:26:44;100182.56;;;18.02;65.63
61786;BME280;47692;53.714;11.372;2023-09-19T12:29:18;100176.34;;;18.03;65.20
61786;BME280;47692;53.714;11.372;2023-09-19T12:32:02;100179.47;;;17.96;64.57
61786;BME280;47692;53.714;11.372;2023-09-19T12:34:30;100174.34;;;18.07;65.27
61786;BME280;47692;53.714;11.372;2023-09-19T12:37:13;100174.72;;;18.15;65.51
61786;BME280;47692;53.714;11.372;2023-09-19T12:39:45;100178.97;;;18.18;64.36
61786;BME280;47692;53.714;11.372;2023-09-19T12:42:23;100174.50;;;18.18;63.81
61786;BME280;47692;53.714;11.372;2023-09-19T12:44:51;100173.91;;;18.00;64.03
61786;BME280;47692;53.714;11.372;2023-09-19T12:47:25;100179.53;;;18.08;64.29
61786;BME280;47692;53.714;11.372;2023-09-19T12:50:06;100171.19;;;18.29;63.04
61786;BME280;47692;53.714;11.372;2023-09-19T12:52:37;100159.47;;;18.33;62.55
61786;BME280;47692;53.714;11.372;2023-09-19T12:55:02;100174.19;;;18.37;62.16
61786;BME280;47692;53.714;11.372;2023-09-19T12:57:28;100177.41;;;18.43;62.11
61786;BME280;47692;53.714;11.372;2023-09-19T12:59:57;100177.94;;;18.48;61.39
61786;BME280;47692;53.714;11.372;2023-09-19T13:02:22;100175.16;;;18.64;61.64
61786;BME280;47692;53.714;11.372;2023-09-19T13:04:52;100170.34;;;18.56;60.52
61786;BME280;47692;53.714;11.372;2023-09-19T13:07:43;100165.16;;;18.54;61.07
61786;BME280;47692;53.714;11.372;2023-09-19T13:10:10;100183.13;;;18.49;61.82
61786;BME280;47692;53.714;11.372;2023-09-19T13:12:37;100179.31;;;18.53;61.36
61786;BME280;47692;53.714;11.372;2023-09-19T13:15:08;100183.47;;;18.30;61.46
61786;BME280;47692;53.714;11.372;2023-09-19T13:17:46;100180.84;;;18.16;62.18
61786;BME280;47692;53.714;11.372;2023-09-19T13:20:25;100202.25;;;18.25;62.26
61786;BME280;47692;53.714;11.372;2023-09-19T13:22:53;100200.81;;;18.34;62.26
61786;BME280;47692;53.714;11.372;2023-09-19T13:25:20;100190.81;;;18.25;61.39
61786;BME280;47692;53.714;11.372;2023-09-19T13:27:54;100194.03;;;18.30;61.98
61786;BME280;47692;53.714;11.372;2023-09-19T13:30:24;100190.63;;;18.28;61.79
61786;BME280;47692;53.714;11.372;2023-09-19T13:32:51;100189.31;;;18.21;62.21
61786;BME280;47692;53.714;11.372;2023-09-19T13:35:17;100192.34;;;18.29;62.43